sensor_id;sensor_type;location;lat;lon;timestamp;P1;durP1;ratioP1;P2;durP2;ratioP2
69008;SDS011;56065;52.472;13.380;2023-03-20T00:00:22;9.70;;;3.35;;
69008;SDS011;56065;52.472;13.380;2023-03-20T00:02:52;8.65;;;3.60;;
69008;SDS011;56065;52.472;13.380;2023-03-20T00:05:19;9.87;;;3.40;;
69008;SDS011;56065;52.472;13.380;2023-03-20T00:07:46;8.07;;;3.20;;
69008;SDS011;56065;52.472;13.380;2023-03-20T00:10:13;8.52;;;3.35;;
69008;SDS011;56065;52.472;13.380;2023-03-20T00:12:40;10.37;;;3.70;;
69008;SDS011;56065;52.472;13.380;2023-03-20T00:15:07;7.68;;;3.33;;
69008;SDS011;56065;52.472;13.380;2023-03-20T00:17:45;8.43;;;3.45;;
69008;SDS011;56065;52.472;13.380;2023-03-20T00:20:14;7.27;;;3.03;;
69008;SDS011;56065;52.472;13.380;2023-03-20T00:22:40;8.17;;;3.50;;
69008;SDS011;56065;52.472;13.380;2023-03-20T00:25:06;8.32;;;3.38;;
69008;SDS011;56065;52.472;13.380;2023-03-20T00:27:33;8.90;;;3.70;;
69008;SDS011;56065;52.472;13.380;2023-03-20T00:29:59;7.93;;;3.13;;
69008;SDS011;56065;52.472;13.380;2023-03-20T00:32:25;10.03;;;3.33;;
69008;SDS011;56065;52.472;13.380;2023-03-20T00:34:50;7.10;;;3.00;;
69008;SDS011;56065;52.472;13.380;2023-03-20T00:37:15;8.73;;;3.20;;
69008;SDS011;56065;52.472;13.380;2023-03-20T00:39:41;7.97;;;3.00;;
69008;SDS011;56065;52.472;13.380;2023-03-20T00:42:06;8.80;;;3.63;;
69008;SDS011;56065;52.472;13.380;2023-03-20T00:44:49;8.60;;;3.47;;
69008;SDS011;56065;52.472;13.380;2023-03-20T00:47:18;7.32;;;2.92;;
69008;SDS011;56065;52.472;13.380;2023-03-20T00:49:46;8.30;;;3.30;;
69008;SDS011;56065;52.472;13.380;2023-03-20T00:52:14;9.25;;;3.28;;
69008;SDS011;56065;52.472;13.380;2023-03-20T00:54:41;8.77;;;3.22;;
69008;SDS011;56065;52.472;13.380;2023-03-20T00:57:08;8.07;;;3.20;;
69008;SDS011;56065;52.472;13.380;2023-03-20T00:59:41;7.30;;;2.70;;
69008;SDS011;56065;52.472;13.380;2023-03-20T01:02:25;8.75;;;3.25;;
69008;SDS011;56065;52.472;13.380;2023-03-20T01:04:52;6.97;;;2.80;;
69008;SDS011;56065;52.472;13.380;2023-03-20T01:07:18;9.80;;;3.13;;
69008;SDS011;56065;52.472;13.380;2023-03-20T01:09:44;10.15;;;3.28;;
69008;SDS011;56065;52.472;13.380;2023-03-20T01:12:11;7.13;;;2.75;;
69008;SDS011;56065;52.472;13.380;2023-03-20T01:14:38;7.70;;;2.78;;
69008;SDS011;56065;52.472;13.380;2023-03-20T01:17:04;7.80;;;2.87;;
69008;SDS011;56065;52.472;13.380;2023-03-20T01:19:30;7.60;;;3.10;;
69008;SDS011;56065;52.472;13.380;2023-03-20T01:21:55;7.73;;;3.80;;
69008;SDS011;56065;52.472;13.380;2023-03-20T01:24:20;8.07;;;3.37;;
69008;SDS011;56065;52.472;13.380;2023-03-20T01:26:46;7.43;;;3.50;;
69008;SDS011;56065;52.472;13.380;2023-03-20T01:29:15;8.27;;;3.70;;
69008;SDS011;56065;52.472;13.380;2023-03-20T01:31:46;10.15;;;3.35;;
69008;SDS011;56065;52.472;13.380;2023-03-20T01:34:12;7.47;;;3.22;;
69008;SDS011;56065;52.472;13.380;2023-03-20T01:36:37;8.47;;;3.23;;
69008;SDS011;56065;52.472;13.380;2023-03-20T01:39:03;8.43;;;3.40;;
69008;SDS011;56065;52.472;13.380;2023-03-20T01:41:29;7.77;;;3.10;;
69008;SDS011;56065;52.472;13.380;2023-03-20T01:43:55;8.02;;;3.00;;
69008;SDS011;56065;52.472;13.380;2023-03-20T01:51:27;7.72;;;3.28;;
69008;SDS011;56065;52.472;13.380;2023-03-20T01:56:44;7.10;;;3.05;;
69008;SDS011;56065;52.472;13.380;2023-03-20T01:59:15;9.07;;;3.10;;
69008;SDS011;56065;52.472;13.380;2023-03-20T02:01:45;8.83;;;3.10;;
69008;SDS011;56065;52.472;13.380;2023-03-20T02:04:11;7.30;;;3.42;;
69008;SDS011;56065;52.472;13.380;2023-03-20T02:06:39;9.20;;;3.97;;
69008;SDS011;56065;52.472;13.380;2023-03-20T02:09:06;10.82;;;3.30;;
69008;SDS011;56065;52.472;13.380;2023-03-20T02:11:32;9.02;;;3.60;;
69008;SDS011;56065;52.472;13.380;2023-03-20T02:13:58;8.68;;;3.33;;
69008;SDS011;56065;52.472;13.380;2023-03-20T02:16:25;8.82;;;3.72;;
69008;SDS011;56065;52.472;13.380;2023-03-20T02:18:51;7.40;;;3.53;;
69008;SDS011;56065;52.472;13.380;2023-03-20T02:27:40;10.07;;;3.80;;
69008;SDS011;56065;52.472;13.380;2023-03-20T02:44:02;8.85;;;4.03;;
69008;SDS011;56065;52.472;13.380;2023-03-20T02:55:06;9.63;;;3.95;;
69008;SDS011;56065;52.472;13.380;2023-03-20T02:57:43;9.07;;;3.70;;
69008;SDS011;56065;52.472;13.380;2023-03-20T03:02:48;8.23;;;3.78;;
69008;SDS011;56065;52.472;13.380;2023-03-20T03:05:21;9.88;;;4.00;;
69008;SDS011;56065;52.472;13.380;2023-03-20T03:07:51;8.52;;;4.25;;
69008;SDS011;56065;52.472;13.380;2023-03-20T03:10:23;8.20;;;3.70;;
69008;SDS011;56065;52.472;13.380;2023-03-20T03:12:54;7.17;;;3.60;;
69008;SDS011;56065;52.472;13.380;2023-03-20T03:17:56;9.07;;;3.70;;
69008;SDS011;56065;52.472;13.380;2023-03-20T03:20:30;7.13;;;3.47;;
69008;SDS011;56065;52.472;13.380;2023-03-20T03:22:58;8.50;;;3.80;;
69008;SDS011;56065;52.472;13.380;2023-03-20T03:25:25;8.00;;;3.50;;
69008;SDS011;56065;52.472;13.380;2023-03-20T03:27:58;10.60;;;4.15;;
69008;SDS011;56065;52.472;13.380;2023-03-20T03:30:27;10.57;;;4.10;;
69008;SDS011;56065;52.472;13.380;2023-03-20T03:35:54;10.48;;;4.55;;
69008;SDS011;56065;52.472;13.380;2023-03-20T03:39:47;10.40;;;4.20;;
69008;SDS011;56065;52.472;13.380;2023-03-20T03:41:44;7.72;;;4.03;;
69008;SDS011;56065;52.472;13.380;2023-03-20T03:44:21;8.33;;;4.30;;
69008;SDS011;56065;52.472;13.380;2023-03-20T03:49:31;8.45;;;4.00;;
69008;SDS011;56065;52.472;13.380;2023-03-20T03:52:11;8.45;;;3.75;;
69008;SDS011;56065;52.472;13.380;2023-03-20T03:54:46;8.43;;;3.90;;
69008;SDS011;56065;52.472;13.380;2023-03-20T03:57:16;9.57;;;4.20;;
69008;SDS011;56065;52.472;13.380;2023-03-20T03:59:48;10.77;;;4.05;;
69008;SDS011;56065;52.472;13.380;2023-03-20T04:02:16;8.13;;;3.95;;
69008;SDS011;56065;52.472;13.380;2023-03-20T04:04:44;8.68;;;4.35;;
69008;SDS011;56065;52.472;13.380;2023-03-20T04:07:13;9.57;;;4.30;;
69008;SDS011;56065;52.472;13.380;2023-03-20T04:09:39;10.97;;;4.17;;
69008;SDS011;56065;52.472;13.380;2023-03-20T04:12:05;9.80;;;4.35;;
69008;SDS011;56065;52.472;13.380;2023-03-20T04:14:31;9.90;;;4.15;;
69008;SDS011;56065;52.472;13.380;2023-03-20T04:16:56;9.87;;;4.40;;
69008;SDS011;56065;52.472;13.380;2023-03-20T04:19:21;9.70;;;4.40;;
69008;SDS011;56065;52.472;13.380;2023-03-20T04:21:47;10.40;;;4.80;;
69008;SDS011;56065;52.472;13.380;2023-03-20T04:24:12;10.37;;;4.97;;
69008;SDS011;56065;52.472;13.380;2023-03-20T04:26:39;9.20;;;4.57;;
69008;SDS011;56065;52.472;13.380;2023-03-20T04:29:05;10.10;;;4.70;;
69008;SDS011;56065;52.472;13.380;2023-03-20T04:31:30;9.77;;;4.67;;
69008;SDS011;56065;52.472;13.380;2023-03-20T04:33:56;8.98;;;4.80;;
69008;SDS011;56065;52.472;13.380;2023-03-20T04:36:22;8.50;;;4.80;;
69008;SDS011;56065;52.472;13.380;2023-03-20T04:38:47;9.73;;;5.07;;
69008;SDS011;56065;52.472;13.380;2023-03-20T04:41:12;11.07;;;4.67;;
69008;SDS011;56065;52.472;13.380;2023-03-20T04:43:38;10.23;;;5.13;;
69008;SDS011;56065;52.472;13.380;2023-03-20T04:46:04;9.47;;;4.63;;
69008;SDS011;56065;52.472;13.380;2023-03-20T04:48:30;11.32;;;5.65;;
69008;SDS011;56065;52.472;13.380;2023-03-20T04:50:55;11.87;;;6.17;;
69008;SDS011;56065;52.472;13.380;2023-03-20T04:53:21;9.05;;;4.80;;
69008;SDS011;56065;52.472;13.380;2023-03-20T04:55:46;14.53;;;6.37;;
69008;SDS011;56065;52.472;13.380;2023-03-20T04:58:12;11.47;;;5.50;;
69008;SDS011;56065;52.472;13.380;2023-03-20T05:00:38;10.70;;;5.10;;
69008;SDS011;56065;52.472;13.380;2023-03-20T05:03:03;10.80;;;5.40;;
69008;SDS011;56065;52.472;13.380;2023-03-20T05:05:29;12.90;;;5.67;;
69008;SDS011;56065;52.472;13.380;2023-03-20T05:07:54;10.65;;;5.53;;
69008;SDS011;56065;52.472;13.380;2023-03-20T05:10:20;12.80;;;5.50;;
69008;SDS011;56065;52.472;13.380;2023-03-20T05:12:46;10.35;;;5.43;;
69008;SDS011;56065;52.472;13.380;2023-03-20T05:15:11;12.67;;;6.00;;
69008;SDS011;56065;52.472;13.380;2023-03-20T05:17:37;10.68;;;5.18;;
69008;SDS011;56065;52.472;13.380;2023-03-20T05:20:03;11.47;;;6.50;;
69008;SDS011;56065;52.472;13.380;2023-03-20T05:22:29;12.75;;;6.53;;
69008;SDS011;56065;52.472;13.380;2023-03-20T05:24:54;13.73;;;6.57;;
69008;SDS011;56065;52.472;13.380;2023-03-20T05:27:20;13.03;;;6.67;;
69008;SDS011;56065;52.472;13.380;2023-03-20T05:29:45;13.23;;;6.72;;
69008;SDS011;56065;52.472;13.380;2023-03-20T05:32:10;15.70;;;7.63;;
69008;SDS011;56065;52.472;13.380;2023-03-20T05:34:37;15.90;;;7.47;;
69008;SDS011;56065;52.472;13.380;2023-03-20T05:37:02;12.60;;;6.45;;
69008;SDS011;56065;52.472;13.380;2023-03-20T05:39:28;16.98;;;7.53;;
69008;SDS011;56065;52.472;13.380;2023-03-20T05:41:53;15.10;;;7.27;;
69008;SDS011;56065;52.472;13.380;2023-03-20T05:44:19;17.50;;;7.37;;
69008;SDS011;56065;52.472;13.380;2023-03-20T05:46:45;16.92;;;7.85;;
69008;SDS011;56065;52.472;13.380;2023-03-20T05:49:10;16.57;;;7.57;;
69008;SDS011;56065;52.472;13.380;2023-03-20T05:51:35;14.53;;;7.87;;
69008;SDS011;56065;52.472;13.380;2023-03-20T05:54:01;15.48;;;8.43;;
69008;SDS011;56065;52.472;13.380;2023-03-20T05:56:26;15.70;;;7.63;;
69008;SDS011;56065;52.472;13.380;2023-03-20T05:58:52;17.40;;;8.17;;
69008;SDS011;56065;52.472;13.380;2023-03-20T06:01:17;16.93;;;9.00;;
69008;SDS011;56065;52.472;13.380;2023-03-20T06:03:46;17.98;;;8.73;;
69008;SDS011;56065;52.472;13.380;2023-03-20T06:06:12;17.45;;;8.63;;
69008;SDS011;56065;52.472;13.380;2023-03-20T06:08:37;18.23;;;8.70;;
69008;SDS011;56065;52.472;13.380;2023-03-20T06:11:03;17.90;;;9.03;;
69008;SDS011;56065;52.472;13.380;2023-03-20T06:13:28;17.92;;;9.80;;
69008;SDS011;56065;52.472;13.380;2023-03-20T06:15:54;20.53;;;10.53;;
69008;SDS011;56065;52.472;13.380;2023-03-20T06:18:20;19.58;;;10.50;;
69008;SDS011;56065;52.472;13.380;2023-03-20T06:20:45;18.73;;;9.83;;
69008;SDS011;56065;52.472;13.380;2023-03-20T06:23:16;18.50;;;9.88;;
69008;SDS011;56065;52.472;13.380;2023-03-20T06:25:41;18.83;;;10.07;;
69008;SDS011;56065;52.472;13.380;2023-03-20T06:28:07;18.53;;;10.90;;
69008;SDS011;56065;52.472;13.380;2023-03-20T06:30:32;18.52;;;9.90;;
69008;SDS011;56065;52.472;13.380;2023-03-20T06:32:58;18.93;;;10.23;;
69008;SDS011;56065;52.472;13.380;2023-03-20T06:35:23;21.77;;;10.83;;
69008;SDS011;56065;52.472;13.380;2023-03-20T06:37:48;18.73;;;10.80;;
69008;SDS011;56065;52.472;13.380;2023-03-20T06:40:14;20.17;;;11.48;;
69008;SDS011;56065;52.472;13.380;2023-03-20T06:42:40;19.57;;;10.73;;
69008;SDS011;56065;52.472;13.380;2023-03-20T06:45:05;22.02;;;11.30;;
69008;SDS011;56065;52.472;13.380;2023-03-20T06:47:32;24.57;;;12.70;;
69008;SDS011;56065;52.472;13.380;2023-03-20T06:49:57;24.13;;;13.50;;
69008;SDS011;56065;52.472;13.380;2023-03-20T06:52:22;27.00;;;14.33;;
69008;SDS011;56065;52.472;13.380;2023-03-20T06:54:49;25.63;;;14.03;;
69008;SDS011;56065;52.472;13.380;2023-03-20T06:57:15;27.13;;;14.38;;
69008;SDS011;56065;52.472;13.380;2023-03-20T06:59:41;26.25;;;13.82;;
69008;SDS011;56065;52.472;13.380;2023-03-20T07:02:08;28.73;;;14.80;;
69008;SDS011;56065;52.472;13.380;2023-03-20T07:04:34;30.00;;;15.13;;
69008;SDS011;56065;52.472;13.380;2023-03-20T07:07:00;26.37;;;13.20;;
69008;SDS011;56065;52.472;13.380;2023-03-20T07:09:25;29.00;;;14.68;;
69008;SDS011;56065;52.472;13.380;2023-03-20T07:11:51;28.70;;;14.37;;
69008;SDS011;56065;52.472;13.380;2023-03-20T07:14:17;30.70;;;14.75;;
69008;SDS011;56065;52.472;13.380;2023-03-20T07:16:43;33.10;;;15.33;;
69008;SDS011;56065;52.472;13.380;2023-03-20T07:19:08;30.40;;;14.83;;
69008;SDS011;56065;52.472;13.380;2023-03-20T07:21:34;29.70;;;14.32;;
69008;SDS011;56065;52.472;13.380;2023-03-20T07:23:59;29.03;;;14.47;;
69008;SDS011;56065;52.472;13.380;2023-03-20T07:26:25;26.20;;;14.05;;
69008;SDS011;56065;52.472;13.380;2023-03-20T07:28:51;29.13;;;14.43;;
69008;SDS011;56065;52.472;13.380;2023-03-20T07:31:23;31.63;;;15.10;;
69008;SDS011;56065;52.472;13.380;2023-03-20T07:33:51;29.13;;;13.90;;
69008;SDS011;56065;52.472;13.380;2023-03-20T07:36:16;32.22;;;14.02;;
69008;SDS011;56065;52.472;13.380;2023-03-20T07:38:42;30.63;;;14.87;;
69008;SDS011;56065;52.472;13.380;2023-03-20T07:41:07;32.20;;;14.33;;
69008;SDS011;56065;52.472;13.380;2023-03-20T07:43:33;34.72;;;14.85;;
69008;SDS011;56065;52.472;13.380;2023-03-20T07:46:00;31.53;;;14.13;;
69008;SDS011;56065;52.472;13.380;2023-03-20T07:48:30;35.03;;;15.02;;
69008;SDS011;56065;52.472;13.380;2023-03-20T07:50:55;36.53;;;14.33;;
69008;SDS011;56065;52.472;13.380;2023-03-20T07:53:21;33.77;;;14.27;;
69008;SDS011;56065;52.472;13.380;2023-03-20T07:55:46;32.13;;;14.30;;
69008;SDS011;56065;52.472;13.380;2023-03-20T07:58:12;32.37;;;14.20;;
69008;SDS011;56065;52.472;13.380;2023-03-20T08:00:37;30.73;;;13.53;;
69008;SDS011;56065;52.472;13.380;2023-03-20T08:03:02;32.93;;;14.00;;
69008;SDS011;56065;52.472;13.380;2023-03-20T08:05:28;32.63;;;14.30;;
69008;SDS011;56065;52.472;13.380;2023-03-20T08:07:54;29.63;;;13.48;;
69008;SDS011;56065;52.472;13.380;2023-03-20T08:10:19;29.83;;;12.83;;
69008;SDS011;56065;52.472;13.380;2023-03-20T08:12:44;29.27;;;13.10;;
69008;SDS011;56065;52.472;13.380;2023-03-20T08:15:13;34.15;;;13.07;;
69008;SDS011;56065;52.472;13.380;2023-03-20T08:17:42;33.17;;;12.73;;
69008;SDS011;56065;52.472;13.380;2023-03-20T08:20:10;32.58;;;13.55;;
69008;SDS011;56065;52.472;13.380;2023-03-20T08:22:37;31.65;;;13.43;;
69008;SDS011;56065;52.472;13.380;2023-03-20T08:25:02;30.40;;;13.60;;
69008;SDS011;56065;52.472;13.380;2023-03-20T08:27:28;31.67;;;13.90;;
69008;SDS011;56065;52.472;13.380;2023-03-20T08:29:53;32.23;;;13.63;;
69008;SDS011;56065;52.472;13.380;2023-03-20T08:32:19;33.73;;;13.67;;
69008;SDS011;56065;52.472;13.380;2023-03-20T08:34:44;31.20;;;12.90;;
69008;SDS011;56065;52.472;13.380;2023-03-20T08:37:10;26.60;;;12.05;;
69008;SDS011;56065;52.472;13.380;2023-03-20T08:39:36;27.37;;;12.30;;
69008;SDS011;56065;52.472;13.380;2023-03-20T08:42:03;30.85;;;12.93;;
69008;SDS011;56065;52.472;13.380;2023-03-20T08:44:29;27.85;;;11.63;;
69008;SDS011;56065;52.472;13.380;2023-03-20T08:46:54;28.97;;;11.83;;
69008;SDS011;56065;52.472;13.380;2023-03-20T08:49:20;26.42;;;11.35;;
69008;SDS011;56065;52.472;13.380;2023-03-20T08:51:46;26.43;;;11.93;;
69008;SDS011;56065;52.472;13.380;2023-03-20T08:54:11;24.83;;;11.33;;
69008;SDS011;56065;52.472;13.380;2023-03-20T08:56:36;25.83;;;11.80;;
69008;SDS011;56065;52.472;13.380;2023-03-20T08:59:02;22.88;;;10.60;;
69008;SDS011;56065;52.472;13.380;2023-03-20T09:01:27;22.13;;;9.97;;
69008;SDS011;56065;52.472;13.380;2023-03-20T09:03:53;24.03;;;11.47;;
69008;SDS011;56065;52.472;13.380;2023-03-20T09:06:18;23.57;;;10.97;;
69008;SDS011;56065;52.472;13.380;2023-03-20T09:08:43;24.88;;;12.15;;
69008;SDS011;56065;52.472;13.380;2023-03-20T09:11:09;33.90;;;12.70;;
69008;SDS011;56065;52.472;13.380;2023-03-20T09:13:35;26.97;;;12.10;;
69008;SDS011;56065;52.472;13.380;2023-03-20T09:16:00;22.20;;;10.65;;
69008;SDS011;56065;52.472;13.380;2023-03-20T09:18:26;23.70;;;10.47;;
69008;SDS011;56065;52.472;13.380;2023-03-20T09:20:51;26.23;;;10.90;;
69008;SDS011;56065;52.472;13.380;2023-03-20T09:23:17;23.53;;;10.57;;
69008;SDS011;56065;52.472;13.380;2023-03-20T09:25:43;25.05;;;10.43;;
69008;SDS011;56065;52.472;13.380;2023-03-20T09:28:08;23.63;;;9.97;;
69008;SDS011;56065;52.472;13.380;2023-03-20T09:30:34;24.63;;;10.48;;
69008;SDS011;56065;52.472;13.380;2023-03-20T09:32:59;22.17;;;10.00;;
69008;SDS011;56065;52.472;13.380;2023-03-20T09:35:25;24.80;;;10.35;;
69008;SDS011;56065;52.472;13.380;2023-03-20T09:37:50;21.43;;;9.00;;
69008;SDS011;56065;52.472;13.380;2023-03-20T09:40:21;18.90;;;9.17;;
69008;SDS011;56065;52.472;13.380;2023-03-20T09:45:25;20.73;;;9.23;;
69008;SDS011;56065;52.472;13.380;2023-03-20T09:50:41;17.70;;;8.82;;
69008;SDS011;56065;52.472;13.380;2023-03-20T09:53:31;18.50;;;8.33;;
69008;SDS011;56065;52.472;13.380;2023-03-20T09:56:01;24.13;;;8.23;;
69008;SDS011;56065;52.472;13.380;2023-03-20T09:58:29;20.42;;;9.15;;
69008;SDS011;56065;52.472;13.380;2023-03-20T10:00:57;19.17;;;8.77;;
69008;SDS011;56065;52.472;13.380;2023-03-20T10:03:47;20.42;;;8.73;;
69008;SDS011;56065;52.472;13.380;2023-03-20T10:06:19;16.70;;;8.37;;
69008;SDS011;56065;52.472;13.380;2023-03-20T10:08:45;22.73;;;9.63;;
69008;SDS011;56065;52.472;13.380;2023-03-20T10:14:10;18.42;;;8.18;;
69008;SDS011;56065;52.472;13.380;2023-03-20T10:19:35;19.10;;;8.55;;
69008;SDS011;56065;52.472;13.380;2023-03-20T10:22:22;16.60;;;7.20;;
69008;SDS011;56065;52.472;13.380;2023-03-20T10:25:07;17.27;;;7.10;;
69008;SDS011;56065;52.472;13.380;2023-03-20T10:27:43;17.08;;;7.65;;
69008;SDS011;56065;52.472;13.380;2023-03-20T10:30:25;19.30;;;8.25;;
69008;SDS011;56065;52.472;13.380;2023-03-20T10:39:05;16.93;;;7.27;;
69008;SDS011;56065;52.472;13.380;2023-03-20T10:41:39;20.55;;;7.85;;
69008;SDS011;56065;52.472;13.380;2023-03-20T10:44:09;15.80;;;7.05;;
69008;SDS011;56065;52.472;13.380;2023-03-20T10:46:43;15.18;;;6.50;;
69008;SDS011;56065;52.472;13.380;2023-03-20T10:49:19;13.95;;;6.28;;
69008;SDS011;56065;52.472;13.380;2023-03-20T10:51:54;18.43;;;7.23;;
69008;SDS011;56065;52.472;13.380;2023-03-20T10:54:26;15.50;;;6.53;;
69008;SDS011;56065;52.472;13.380;2023-03-20T10:56:55;17.55;;;6.63;;
69008;SDS011;56065;52.472;13.380;2023-03-20T10:59:28;14.27;;;6.25;;
69008;SDS011;56065;52.472;13.380;2023-03-20T11:01:58;15.40;;;6.28;;
69008;SDS011;56065;52.472;13.380;2023-03-20T11:04:23;16.20;;;7.30;;
69008;SDS011;56065;52.472;13.380;2023-03-20T11:09:36;13.98;;;5.50;;
69008;SDS011;56065;52.472;13.380;2023-03-20T11:12:02;13.07;;;6.27;;
69008;SDS011;56065;52.472;13.380;2023-03-20T11:14:32;12.95;;;5.53;;
69008;SDS011;56065;52.472;13.380;2023-03-20T11:17:00;15.30;;;5.85;;
69008;SDS011;56065;52.472;13.380;2023-03-20T11:19:31;14.25;;;5.90;;
69008;SDS011;56065;52.472;13.380;2023-03-20T11:21:58;15.35;;;6.03;;
69008;SDS011;56065;52.472;13.380;2023-03-20T11:24:28;15.80;;;5.90;;
69008;SDS011;56065;52.472;13.380;2023-03-20T11:27:05;13.70;;;5.30;;
69008;SDS011;56065;52.472;13.380;2023-03-20T11:29:33;14.15;;;5.60;;
69008;SDS011;56065;52.472;13.380;2023-03-20T11:32:18;14.30;;;5.57;;
69008;SDS011;56065;52.472;13.380;2023-03-20T11:34:53;12.77;;;4.75;;
69008;SDS011;56065;52.472;13.380;2023-03-20T11:37:26;13.80;;;5.67;;
69008;SDS011;56065;52.472;13.380;2023-03-20T11:42:36;15.30;;;5.15;;
69008;SDS011;56065;52.472;13.380;2023-03-20T11:45:13;14.20;;;5.37;;
69008;SDS011;56065;52.472;13.380;2023-03-20T11:47:41;14.80;;;5.28;;
69008;SDS011;56065;52.472;13.380;2023-03-20T11:50:26;13.35;;;5.03;;
69008;SDS011;56065;52.472;13.380;2023-03-20T11:53:01;11.77;;;5.15;;
69008;SDS011;56065;52.472;13.380;2023-03-20T11:58:50;14.03;;;5.60;;
69008;SDS011;56065;52.472;13.380;2023-03-20T12:01:27;18.05;;;5.30;;
69008;SDS011;56065;52.472;13.380;2023-03-20T12:06:24;16.83;;;6.75;;
69008;SDS011;56065;52.472;13.380;2023-03-20T12:08:56;14.30;;;5.18;;
69008;SDS011;56065;52.472;13.380;2023-03-20T12:11:42;13.73;;;5.40;;
69008;SDS011;56065;52.472;13.380;2023-03-20T12:14:15;14.18;;;4.90;;
69008;SDS011;56065;52.472;13.380;2023-03-20T12:16:47;11.18;;;4.55;;
69008;SDS011;56065;52.472;13.380;2023-03-20T12:19:16;12.80;;;5.25;;
69008;SDS011;56065;52.472;13.380;2023-03-20T12:22:30;13.05;;;4.63;;
69008;SDS011;56065;52.472;13.380;2023-03-20T12:24:42;12.10;;;4.63;;
69008;SDS011;56065;52.472;13.380;2023-03-20T12:27:16;15.18;;;5.35;;
69008;SDS011;56065;52.472;13.380;2023-03-20T12:30:02;12.10;;;5.13;;
69008;SDS011;56065;52.472;13.380;2023-03-20T12:32:42;13.57;;;4.95;;
69008;SDS011;56065;52.472;13.380;2023-03-20T12:37:43;13.10;;;4.87;;
69008;SDS011;56065;52.472;13.380;2023-03-20T12:40:11;12.30;;;4.97;;
69008;SDS011;56065;52.472;13.380;2023-03-20T12:42:48;12.97;;;5.07;;
69008;SDS011;56065;52.472;13.380;2023-03-20T12:45:33;11.25;;;5.22;;
69008;SDS011;56065;52.472;13.380;2023-03-20T12:48:31;13.48;;;5.95;;
69008;SDS011;56065;52.472;13.380;2023-03-20T12:53:58;13.60;;;6.15;;
69008;SDS011;56065;52.472;13.380;2023-03-20T12:59:25;12.32;;;5.35;;
69008;SDS011;56065;52.472;13.380;2023-03-20T13:04:55;15.18;;;6.15;;
69008;SDS011;56065;52.472;13.380;2023-03-20T13:10:23;15.53;;;6.23;;
69008;SDS011;56065;52.472;13.380;2023-03-20T13:13:25;14.15;;;6.65;;
69008;SDS011;56065;52.472;13.380;2023-03-20T13:29:37;14.45;;;6.18;;
69008;SDS011;56065;52.472;13.380;2023-03-20T13:32:26;14.45;;;6.68;;
69008;SDS011;56065;52.472;13.380;2023-03-20T13:37:53;15.97;;;7.33;;
69008;SDS011;56065;52.472;13.380;2023-03-20T13:46:00;16.83;;;7.10;;
69008;SDS011;56065;52.472;13.380;2023-03-20T14:01:59;18.00;;;7.60;;
69008;SDS011;56065;52.472;13.380;2023-03-20T14:04:45;17.40;;;7.60;;
69008;SDS011;56065;52.472;13.380;2023-03-20T14:07:28;16.25;;;7.68;;
69008;SDS011;56065;52.472;13.380;2023-03-20T14:10:29;18.85;;;8.00;;
69008;SDS011;56065;52.472;13.380;2023-03-20T14:15:19;18.27;;;7.60;;
69008;SDS011;56065;52.472;13.380;2023-03-20T14:17:46;19.43;;;8.70;;
69008;SDS011;56065;52.472;13.380;2023-03-20T14:20:33;19.02;;;8.50;;
69008;SDS011;56065;52.472;13.380;2023-03-20T14:23:01;17.38;;;8.10;;
69008;SDS011;56065;52.472;13.380;2023-03-20T14:25:27;17.90;;;8.43;;
69008;SDS011;56065;52.472;13.380;2023-03-20T14:35:44;22.13;;;8.80;;
69008;SDS011;56065;52.472;13.380;2023-03-20T14:41:34;18.98;;;9.07;;
69008;SDS011;56065;52.472;13.380;2023-03-20T14:43:57;20.13;;;8.23;;
69008;SDS011;56065;52.472;13.380;2023-03-20T14:46:42;18.50;;;7.80;;
69008;SDS011;56065;52.472;13.380;2023-03-20T14:49:23;19.73;;;8.48;;
69008;SDS011;56065;52.472;13.380;2023-03-20T14:54:51;18.23;;;8.13;;
69008;SDS011;56065;52.472;13.380;2023-03-20T14:57:18;22.73;;;8.80;;
69008;SDS011;56065;52.472;13.380;2023-03-20T14:59:57;16.85;;;7.63;;
69008;SDS011;56065;52.472;13.380;2023-03-20T15:02:26;20.85;;;8.75;;
69008;SDS011;56065;52.472;13.380;2023-03-20T15:04:53;20.30;;;9.00;;
69008;SDS011;56065;52.472;13.380;2023-03-20T15:09:46;20.80;;;8.80;;
69008;SDS011;56065;52.472;13.380;2023-03-20T15:12:15;18.27;;;8.35;;
69008;SDS011;56065;52.472;13.380;2023-03-20T15:14:46;19.17;;;8.10;;
69008;SDS011;56065;52.472;13.380;2023-03-20T15:17:19;18.33;;;7.53;;
69008;SDS011;56065;52.472;13.380;2023-03-20T15:19:47;19.58;;;8.80;;
69008;SDS011;56065;52.472;13.380;2023-03-20T15:22:16;19.40;;;8.33;;
69008;SDS011;56065;52.472;13.380;2023-03-20T15:24:50;19.73;;;8.00;;
69008;SDS011;56065;52.472;13.380;2023-03-20T15:27:18;19.85;;;8.60;;
69008;SDS011;56065;52.472;13.380;2023-03-20T15:29:45;19.80;;;8.95;;
69008;SDS011;56065;52.472;13.380;2023-03-20T15:32:16;17.70;;;8.50;;
69008;SDS011;56065;52.472;13.380;2023-03-20T15:34:41;19.75;;;8.73;;
69008;SDS011;56065;52.472;13.380;2023-03-20T15:37:10;18.85;;;8.45;;
69008;SDS011;56065;52.472;13.380;2023-03-20T15:39:43;23.08;;;9.25;;
69008;SDS011;56065;52.472;13.380;2023-03-20T15:42:14;20.80;;;9.47;;
69008;SDS011;56065;52.472;13.380;2023-03-20T15:44:44;21.27;;;9.13;;
69008;SDS011;56065;52.472;13.380;2023-03-20T15:49:47;22.65;;;9.82;;
69008;SDS011;56065;52.472;13.380;2023-03-20T15:52:25;20.73;;;9.55;;
69008;SDS011;56065;52.472;13.380;2023-03-20T15:55:17;20.43;;;8.77;;
69008;SDS011;56065;52.472;13.380;2023-03-20T15:57:44;20.17;;;8.57;;
69008;SDS011;56065;52.472;13.380;2023-03-20T16:03:02;20.20;;;8.75;;
69008;SDS011;56065;52.472;13.380;2023-03-20T16:05:30;21.73;;;9.75;;
69008;SDS011;56065;52.472;13.380;2023-03-20T16:07:56;21.33;;;9.47;;
69008;SDS011;56065;52.472;13.380;2023-03-20T16:10:29;20.87;;;8.77;;
69008;SDS011;56065;52.472;13.380;2023-03-20T16:12:58;19.52;;;8.77;;
69008;SDS011;56065;52.472;13.380;2023-03-20T16:15:25;21.60;;;8.63;;
69008;SDS011;56065;52.472;13.380;2023-03-20T16:17:56;20.13;;;8.50;;
69008;SDS011;56065;52.472;13.380;2023-03-20T16:20:23;22.40;;;9.40;;
69008;SDS011;56065;52.472;13.380;2023-03-20T16:22:51;20.63;;;8.50;;
69008;SDS011;56065;52.472;13.380;2023-03-20T16:25:21;22.52;;;8.73;;
69008;SDS011;56065;52.472;13.380;2023-03-20T16:27:48;18.35;;;8.90;;
69008;SDS011;56065;52.472;13.380;2023-03-20T16:30:25;23.45;;;9.57;;
69008;SDS011;56065;52.472;13.380;2023-03-20T16:32:59;21.07;;;9.00;;
69008;SDS011;56065;52.472;13.380;2023-03-20T16:35:42;20.67;;;8.93;;
69008;SDS011;56065;52.472;13.380;2023-03-20T16:38:20;21.70;;;8.50;;
69008;SDS011;56065;52.472;13.380;2023-03-20T16:40:51;20.73;;;8.30;;
69008;SDS011;56065;52.472;13.380;2023-03-20T16:43:21;20.05;;;8.80;;
69008;SDS011;56065;52.472;13.380;2023-03-20T16:45:52;22.00;;;8.57;;
69008;SDS011;56065;52.472;13.380;2023-03-20T16:48:23;22.05;;;8.60;;
69008;SDS011;56065;52.472;13.380;2023-03-20T16:50:54;18.67;;;8.38;;
69008;SDS011;56065;52.472;13.380;2023-03-20T16:53:22;19.42;;;8.68;;
69008;SDS011;56065;52.472;13.380;2023-03-20T16:55:49;18.65;;;8.68;;
69008;SDS011;56065;52.472;13.380;2023-03-20T16:58:17;19.43;;;8.67;;
69008;SDS011;56065;52.472;13.380;2023-03-20T17:01:00;21.90;;;9.02;;
69008;SDS011;56065;52.472;13.380;2023-03-20T17:03:36;21.63;;;9.35;;